createdAt,value
2023-05-13T00:01:20.823Z,100.00
2023-05-13T00:03:47.587Z,100.00
2023-05-13T00:06:14.367Z,100.00
2023-05-13T00:08:41.030Z,100.00
2023-05-13T00:11:07.896Z,100.00
2023-05-13T00:13:34.695Z,100.00
2023-05-13T00:16:01.300Z,100.00
2023-05-13T00:18:27.927Z,100.00
2023-05-13T00:20:54.671Z,100.00
2023-05-13T00:23:21.367Z,100.00
2023-05-13T00:25:48.026Z,100.00
2023-05-13T00:28:15.125Z,100.00
2023-05-13T00:30:45.841Z,100.00
2023-05-13T00:33:12.628Z,100.00
2023-05-13T00:35:39.827Z,100.00
2023-05-13T00:38:07.010Z,100.00
2023-05-13T00:40:38.043Z,100.00
2023-05-13T00:43:04.778Z,100.00
2023-05-13T00:45:31.575Z,100.00
2023-05-13T00:47:59.387Z,100.00
2023-05-13T00:50:26.151Z,100.00
2023-05-13T00:52:53.754Z,100.00
2023-05-13T00:55:21.430Z,100.00
2023-05-13T00:57:48.103Z,100.00
2023-05-13T01:00:15.279Z,100.00
2023-05-13T01:03:01.415Z,100.00
2023-05-13T01:05:48.618Z,100.00
2023-05-13T01:08:37.824Z,100.00
2023-05-13T01:11:10.540Z,100.00
2023-05-13T01:13:42.982Z,100.00
2023-05-13T01:16:16.360Z,100.00
2023-05-13T01:19:35.360Z,100.00
2023-05-13T01:22:01.942Z,100.00
2023-05-13T01:24:28.705Z,100.00
2023-05-13T01:26:56.429Z,100.00
2023-05-13T01:29:23.147Z,100.00
2023-05-13T01:31:51.075Z,100.00
2023-05-13T01:34:20.649Z,100.00
2023-05-13T01:36:48.659Z,100.00
2023-05-13T01:39:19.773Z,100.00
2023-05-13T01:41:48.510Z,100.00
2023-05-13T01:44:15.799Z,100.00
2023-05-13T01:46:46.930Z,100.00
2023-05-13T01:49:14.168Z,100.00
2023-05-13T01:51:41.399Z,100.00
2023-05-13T01:54:07.981Z,100.00
2023-05-13T01:56:38.893Z,100.00
2023-05-13T01:59:05.648Z,100.00
2023-05-13T02:01:32.231Z,100.00
2023-05-13T02:04:00.095Z,100.00
2023-05-13T02:06:28.003Z,100.00
2023-05-13T02:08:55.006Z,100.00
2023-05-13T02:11:22.461Z,100.00
2023-05-13T02:13:49.158Z,100.00
2023-05-13T02:16:19.789Z,100.00
2023-05-13T02:18:46.557Z,100.00
2023-05-13T02:21:13.281Z,100.00
2023-05-13T02:23:40.318Z,100.00
2023-05-13T02:26:06.947Z,100.00
2023-05-13T02:28:33.516Z,100.00
2023-05-13T02:31:00.815Z,100.00
2023-05-13T02:33:27.560Z,100.00
2023-05-13T02:35:54.252Z,100.00
2023-05-13T02:38:20.963Z,100.00
2023-05-13T02:40:48.220Z,100.00
2023-05-13T02:43:15.020Z,100.00
2023-05-13T02:45:49.466Z,100.00
2023-05-13T02:48:17.095Z,100.00
2023-05-13T02:50:44.719Z,100.00
2023-05-13T02:53:11.772Z,100.00
2023-05-13T02:55:43.472Z,100.00
2023-05-13T02:58:10.157Z,100.00
2023-05-13T03:00:36.992Z,100.00
2023-05-13T03:03:03.742Z,100.00
2023-05-13T03:05:30.689Z,100.00
2023-05-13T03:07:58.248Z,100.00
2023-05-13T03:10:25.974Z,100.00
2023-05-13T03:12:52.613Z,100.00
2023-05-13T03:15:19.335Z,100.00
2023-05-13T03:17:45.933Z,100.00
2023-05-13T03:20:12.870Z,100.00
2023-05-13T03:22:40.136Z,100.00
2023-05-13T03:25:07.742Z,100.00
2023-05-13T03:27:42.433Z,100.00
2023-05-13T03:30:10.790Z,100.00
2023-05-13T03:32:45.414Z,100.00
2023-05-13T03:35:12.688Z,100.00
2023-05-13T03:37:39.524Z,100.00
2023-05-13T03:40:08.135Z,100.00
2023-05-13T03:42:35.765Z,100.00
2023-05-13T03:45:04.786Z,100.00
2023-05-13T03:47:33.315Z,100.00
2023-05-13T03:50:05.014Z,100.00
2023-05-13T03:52:38.331Z,100.00
2023-05-13T03:55:06.205Z,100.00
2023-05-13T03:57:34.305Z,100.00
2023-05-13T04:00:01.098Z,100.00
2023-05-13T04:02:27.754Z,100.00
2023-05-13T04:04:54.409Z,100.00
2023-05-13T04:07:21.004Z,100.00
2023-05-13T04:09:47.598Z,100.00
2023-05-13T04:12:15.685Z,100.00
2023-05-13T04:14:42.206Z,100.00
2023-05-13T04:17:08.794Z,100.00
2023-05-13T04:19:35.375Z,100.00
2023-05-13T04:22:01.944Z,100.00
2023-05-13T04:24:28.554Z,100.00
2023-05-13T04:26:55.218Z,100.00
2023-05-13T04:29:21.797Z,100.00
2023-05-13T04:31:48.439Z,100.00
2023-05-13T04:34:15.300Z,100.00
2023-05-13T04:36:42.582Z,100.00
2023-05-13T04:39:10.902Z,100.00
2023-05-13T04:41:37.512Z,100.00
2023-05-13T04:44:06.192Z,100.00
2023-05-13T04:46:33.384Z,100.00
2023-05-13T04:49:00.018Z,100.00
2023-05-13T04:51:27.011Z,100.00
2023-05-13T04:53:54.022Z,100.00
2023-05-13T04:56:21.765Z,100.00
2023-05-13T04:58:48.724Z,100.00
2023-05-13T05:01:16.033Z,100.00
2023-05-13T05:03:42.724Z,100.00
2023-05-13T05:06:09.675Z,100.00
2023-05-13T05:08:36.270Z,100.00
2023-05-13T05:11:02.908Z,100.00
2023-05-13T05:13:32.126Z,100.00
2023-05-13T05:15:59.155Z,100.00
2023-05-13T05:18:25.843Z,100.00
2023-05-13T05:20:52.493Z,100.00
2023-05-13T05:23:21.291Z,100.00
2023-05-13T05:25:53.240Z,100.00
2023-05-13T05:28:27.616Z,100.00
2023-05-13T05:30:54.223Z,100.00
2023-05-13T05:33:25.237Z,100.00
2023-05-13T05:35:51.813Z,100.00
2023-05-13T05:38:20.505Z,100.00
2023-05-13T05:40:47.402Z,100.00
2023-05-13T05:43:14.640Z,100.00
2023-05-13T05:45:41.275Z,100.00
2023-05-13T05:48:11.299Z,100.00
2023-05-13T05:50:38.125Z,100.00
2023-05-13T05:53:07.136Z,100.00
2023-05-13T05:55:36.354Z,100.00
2023-05-13T05:58:05.472Z,100.00
2023-05-13T06:00:33.935Z,100.00
2023-05-13T06:03:00.643Z,100.00
2023-05-13T06:05:27.537Z,100.00
2023-05-13T06:07:54.097Z,100.00
2023-05-13T06:10:21.082Z,100.00
2023-05-13T06:12:47.953Z,100.00
2023-05-13T06:15:14.598Z,100.00
2023-05-13T06:17:41.941Z,100.00
2023-05-13T06:20:09.028Z,100.00
2023-05-13T06:22:35.789Z,100.00
2023-05-13T06:25:02.425Z,100.00
2023-05-13T06:27:29.031Z,94.91
2023-05-13T06:29:55.602Z,95.00
2023-05-13T06:32:22.161Z,94.36
2023-05-13T06:34:49.492Z,90.81
2023-05-13T06:37:16.162Z,91.09
2023-05-13T06:39:43.284Z,86.59
2023-05-13T06:42:10.703Z,85.29
2023-05-13T06:44:44.038Z,81.66
2023-05-13T06:47:14.687Z,76.35
2023-05-13T06:49:42.319Z,77.71
2023-05-13T06:52:12.129Z,85.25
2023-05-13T06:54:38.740Z,87.57
2023-05-13T06:57:05.693Z,89.23
2023-05-13T06:59:32.267Z,82.35
2023-05-13T07:01:58.854Z,80.03
2023-05-13T07:04:25.685Z,72.46
2023-05-13T07:06:52.308Z,80.69
2023-05-13T07:09:18.849Z,71.33
2023-05-13T07:11:45.341Z,71.35
2023-05-13T07:14:11.877Z,70.06
2023-05-13T07:16:38.506Z,66.39
2023-05-13T07:19:05.216Z,69.95
2023-05-13T07:21:31.798Z,67.48
2023-05-13T07:23:58.366Z,68.83
2023-05-13T07:26:24.910Z,65.59
2023-05-13T07:28:51.448Z,62.18
2023-05-13T07:31:18.106Z,64.23
2023-05-13T07:33:44.718Z,58.14
2023-05-13T07:36:11.211Z,58.57
2023-05-13T07:38:37.778Z,58.26
2023-05-13T07:41:04.468Z,61.67
2023-05-13T07:43:32.029Z,61.34
2023-05-13T07:45:58.784Z,57.05
2023-05-13T07:48:25.698Z,60.31
2023-05-13T07:50:52.443Z,57.16
2023-05-13T07:53:19.829Z,60.78
2023-05-13T07:55:46.663Z,57.89
2023-05-13T07:58:13.268Z,58.10
2023-05-13T08:00:39.859Z,58.10
2023-05-13T08:03:06.697Z,57.95
2023-05-13T08:05:33.406Z,57.74
2023-05-13T08:08:00.044Z,60.12
2023-05-13T08:10:26.704Z,55.38
2023-05-13T08:12:57.557Z,54.78
2023-05-13T08:15:24.979Z,55.98
2023-05-13T08:17:53.774Z,52.82
2023-05-13T08:20:23.047Z,54.61
2023-05-13T08:22:49.721Z,54.61
2023-05-13T08:25:16.443Z,51.21
2023-05-13T08:27:44.203Z,50.97
2023-05-13T08:30:11.259Z,52.77
2023-05-13T08:32:37.852Z,51.08
2023-05-13T08:35:04.757Z,52.67
2023-05-13T08:37:31.584Z,53.83
2023-05-13T08:40:00.524Z,53.25
2023-05-13T08:42:37.786Z,51.94
2023-05-13T08:45:05.687Z,48.89
2023-05-13T08:47:51.077Z,46.94
2023-05-13T08:50:19.234Z,46.18
2023-05-13T08:52:46.045Z,46.53
2023-05-13T08:55:13.084Z,48.20
2023-05-13T08:57:39.754Z,47.67
2023-05-13T09:00:08.138Z,46.99
2023-05-13T09:02:34.870Z,47.60
2023-05-13T09:05:07.480Z,48.34
2023-05-13T09:07:36.842Z,46.13
2023-05-13T09:10:07.740Z,44.27
2023-05-13T09:12:51.711Z,43.31
2023-05-13T09:15:21.529Z,43.36
2023-05-13T09:17:51.425Z,46.29
2023-05-13T09:20:20.073Z,43.62
2023-05-13T09:22:55.412Z,44.90
2023-05-13T09:25:25.208Z,42.69
2023-05-13T09:27:57.485Z,42.89
2023-05-13T09:30:28.259Z,43.09
2023-05-13T09:33:19.611Z,41.88
2023-05-13T09:35:52.797Z,41.18
2023-05-13T09:38:25.207Z,38.00
2023-05-13T09:40:55.762Z,39.47
2023-05-13T09:43:24.216Z,41.46
2023-05-13T09:45:55.421Z,42.17
2023-05-13T09:48:25.186Z,38.89
2023-05-13T09:50:52.498Z,38.30
2023-05-13T09:53:21.165Z,38.86
2023-05-13T09:55:49.175Z,42.08
2023-05-13T09:58:20.106Z,40.51
2023-05-13T10:00:47.753Z,39.11
2023-05-13T10:03:15.922Z,37.69
2023-05-13T10:05:42.802Z,37.97
2023-05-13T10:08:11.922Z,37.86
2023-05-13T10:10:39.785Z,37.27
2023-05-13T10:13:09.299Z,36.94
2023-05-13T10:15:36.120Z,37.15
2023-05-13T10:18:05.979Z,37.81
2023-05-13T10:20:34.008Z,37.67
2023-05-13T10:23:00.643Z,36.82
2023-05-13T10:25:27.892Z,38.83
2023-05-13T10:27:57.740Z,37.56
2023-05-13T10:30:26.501Z,38.25
2023-05-13T10:32:54.546Z,35.74
2023-05-13T10:35:25.332Z,34.95
2023-05-13T10:38:17.543Z,35.62
2023-05-13T10:41:08.047Z,36.31
2023-05-13T10:43:35.221Z,35.60
2023-05-13T10:46:06.514Z,36.40
2023-05-13T10:48:39.522Z,35.39
2023-05-13T10:51:09.128Z,35.46
2023-05-13T10:53:49.186Z,34.30
2023-05-13T10:56:19.260Z,34.52
2023-05-13T10:58:58.547Z,36.43
2023-05-13T11:01:29.501Z,33.52
2023-05-13T11:03:59.131Z,34.80
2023-05-13T11:06:40.818Z,32.95
2023-05-13T11:09:14.645Z,32.48
2023-05-13T11:11:41.906Z,34.09
2023-05-13T11:14:14.058Z,33.49
2023-05-13T11:16:48.880Z,31.29
2023-05-13T11:19:25.822Z,31.94
2023-05-13T11:21:54.229Z,32.02
2023-05-13T11:24:22.017Z,30.86
2023-05-13T11:26:49.830Z,31.39
2023-05-13T11:29:37.327Z,30.92
2023-05-13T11:32:05.782Z,30.33
2023-05-13T11:34:33.979Z,29.16
2023-05-13T11:37:03.564Z,30.21
2023-05-13T11:39:30.826Z,28.32
2023-05-13T11:41:57.586Z,28.24
2023-05-13T11:44:25.644Z,27.66
2023-05-13T11:46:56.227Z,28.41
2023-05-13T11:49:42.072Z,27.80
2023-05-13T11:52:14.482Z,28.97
2023-05-13T11:54:46.303Z,26.89
2023-05-13T11:57:20.203Z,27.53
2023-05-13T11:59:53.939Z,27.26
2023-05-13T12:02:22.206Z,25.50
2023-05-13T12:04:49.108Z,26.37
2023-05-13T12:07:20.072Z,27.37
2023-05-13T12:09:46.605Z,26.70
2023-05-13T12:12:14.574Z,26.79
2023-05-13T12:14:42.250Z,25.42
2023-05-13T12:17:09.030Z,25.51
2023-05-13T12:19:37.291Z,24.36
2023-05-13T12:22:05.622Z,24.79
2023-05-13T12:24:35.411Z,24.51
2023-05-13T12:27:08.631Z,24.12
2023-05-13T12:29:42.911Z,25.03
2023-05-13T12:32:11.270Z,24.88
2023-05-13T12:34:38.970Z,23.91
2023-05-13T12:37:12.827Z,23.66
2023-05-13T12:39:41.478Z,25.00
2023-05-13T12:42:18.542Z,25.04
2023-05-13T12:44:45.850Z,23.99
2023-05-13T12:47:15.210Z,23.59
2023-05-13T12:49:52.394Z,23.47
2023-05-13T12:52:19.487Z,23.84
2023-05-13T12:54:46.256Z,24.08
2023-05-13T12:57:12.871Z,22.92
2023-05-13T12:59:39.520Z,23.33
2023-05-13T13:02:06.816Z,23.29
2023-05-13T13:04:33.364Z,22.61
2023-05-13T13:06:59.900Z,23.19
2023-05-13T13:09:26.418Z,22.66
2023-05-13T13:11:53.017Z,23.72
2023-05-13T13:14:19.611Z,23.52
2023-05-13T13:16:46.784Z,22.81
2023-05-13T13:19:13.440Z,22.42
2023-05-13T13:21:40.059Z,22.71
2023-05-13T13:24:06.820Z,22.99
2023-05-13T13:26:33.424Z,23.05
2023-05-13T13:29:00.000Z,23.30
2023-05-13T13:31:26.622Z,22.46
2023-05-13T13:33:53.948Z,22.20
2023-05-13T13:36:20.647Z,22.85
2023-05-13T13:38:47.240Z,21.66
2023-05-13T13:41:13.911Z,22.84
2023-05-13T13:43:40.441Z,22.59
2023-05-13T13:46:07.197Z,22.17
2023-05-13T13:48:33.839Z,21.43
2023-05-13T13:51:00.553Z,22.07
2023-05-13T13:53:27.103Z,22.61
2023-05-13T13:55:53.686Z,22.11
2023-05-13T13:58:20.379Z,22.26
2023-05-13T14:00:46.916Z,20.68
2023-05-13T14:03:13.654Z,20.60
2023-05-13T14:05:40.279Z,21.71
2023-05-13T14:08:07.006Z,21.45
2023-05-13T14:10:33.556Z,21.52
2023-05-13T14:13:00.079Z,21.37
2023-05-13T14:15:28.850Z,21.15
2023-05-13T14:17:55.647Z,20.69
2023-05-13T14:20:22.863Z,20.99
2023-05-13T14:22:49.623Z,21.03
2023-05-13T14:25:16.552Z,20.92
2023-05-13T14:27:43.122Z,21.12
2023-05-13T14:30:09.867Z,21.85
2023-05-13T14:32:36.452Z,22.14
2023-05-13T14:35:03.030Z,22.07
2023-05-13T14:37:29.604Z,21.04
2023-05-13T14:39:56.109Z,20.50
2023-05-13T14:42:22.739Z,20.72
2023-05-13T14:44:49.355Z,20.97
2023-05-13T14:47:15.908Z,21.21
2023-05-13T14:49:42.556Z,20.00
2023-05-13T14:52:09.103Z,19.80
2023-05-13T14:54:36.871Z,19.59
2023-05-13T14:57:04.438Z,20.62
2023-05-13T14:59:32.220Z,20.92
2023-05-13T15:01:58.839Z,21.63
2023-05-13T15:04:25.432Z,20.71
2023-05-13T15:06:52.155Z,20.46
2023-05-13T15:09:19.654Z,20.52
2023-05-13T15:11:46.248Z,20.16
2023-05-13T15:14:12.888Z,20.15
2023-05-13T15:16:39.609Z,20.16
2023-05-13T15:19:07.294Z,20.60
2023-05-13T15:21:34.007Z,20.38
2023-05-13T15:24:00.575Z,20.30
2023-05-13T15:26:27.199Z,21.17
2023-05-13T15:28:53.964Z,20.93
2023-05-13T15:31:20.901Z,20.53
2023-05-13T15:33:47.465Z,20.41
2023-05-13T15:36:14.006Z,20.96
2023-05-13T15:38:40.719Z,21.57
2023-05-13T15:41:07.471Z,21.37
2023-05-13T15:43:34.415Z,21.61
2023-05-13T15:46:01.436Z,21.64
2023-05-13T15:48:29.059Z,22.05
2023-05-13T15:50:55.590Z,21.84
2023-05-13T15:53:22.183Z,21.97
2023-05-13T15:55:48.849Z,21.98
2023-05-13T15:58:15.422Z,21.56
2023-05-13T16:00:41.912Z,21.27
2023-05-13T16:03:08.509Z,21.50
2023-05-13T16:05:36.301Z,20.89
2023-05-13T16:08:02.950Z,21.40
2023-05-13T16:10:29.604Z,21.70
2023-05-13T16:12:56.107Z,22.49
2023-05-13T16:15:22.703Z,22.13
2023-05-13T16:17:49.284Z,22.51
2023-05-13T16:20:15.842Z,22.30
2023-05-13T16:22:43.351Z,21.81
2023-05-13T16:25:11.481Z,21.81
2023-05-13T16:27:39.239Z,22.57
2023-05-13T16:30:07.455Z,23.13
2023-05-13T16:32:34.918Z,24.33
2023-05-13T16:35:02.754Z,24.72
2023-05-13T16:37:29.809Z,26.53
2023-05-13T16:39:56.386Z,27.36
2023-05-13T16:42:23.190Z,27.46
2023-05-13T16:44:49.820Z,28.11
2023-05-13T16:47:16.503Z,28.87
2023-05-13T16:49:43.189Z,28.77
2023-05-13T16:52:09.801Z,28.31
2023-05-13T16:54:36.383Z,29.31
2023-05-13T16:57:02.952Z,28.48
2023-05-13T16:59:29.582Z,29.23
2023-05-13T17:01:56.284Z,29.89
2023-05-13T17:04:22.947Z,30.44
2023-05-13T17:06:49.557Z,31.51
2023-05-13T17:09:16.210Z,31.51
2023-05-13T17:11:43.488Z,31.18
2023-05-13T17:14:10.333Z,31.60
2023-05-13T17:16:37.110Z,31.22
2023-05-13T17:19:03.786Z,31.02
2023-05-13T17:21:30.456Z,32.32
2023-05-13T17:23:56.967Z,31.49
2023-05-13T17:26:23.495Z,31.95
2023-05-13T17:28:50.074Z,31.69
2023-05-13T17:31:16.822Z,32.07
2023-05-13T17:33:43.680Z,33.26
2023-05-13T17:36:10.890Z,33.65
2023-05-13T17:38:37.982Z,33.53
2023-05-13T17:41:05.078Z,34.25
2023-05-13T17:43:31.806Z,34.58
2023-05-13T17:45:58.443Z,34.33
2023-05-13T17:48:26.586Z,35.46
2023-05-13T17:50:53.303Z,34.94
2023-05-13T17:53:20.682Z,34.63
2023-05-13T17:55:50.575Z,34.64
2023-05-13T17:58:17.129Z,35.12
2023-05-13T18:00:43.756Z,35.24
2023-05-13T18:03:10.492Z,35.97
2023-05-13T18:05:37.453Z,35.31
2023-05-13T18:08:04.162Z,36.06
2023-05-13T18:10:30.996Z,35.82
2023-05-13T18:12:57.572Z,35.29
2023-05-13T18:15:24.111Z,35.41
2023-05-13T18:17:50.803Z,35.39
2023-05-13T18:20:18.160Z,35.02
2023-05-13T18:22:44.739Z,35.40
2023-05-13T18:25:11.582Z,36.13
2023-05-13T18:27:38.245Z,36.23
2023-05-13T18:30:06.148Z,37.13
2023-05-13T18:32:32.823Z,37.62
2023-05-13T18:34:59.391Z,37.69
2023-05-13T18:37:25.965Z,38.52
2023-05-13T18:39:52.629Z,38.72
2023-05-13T18:42:19.191Z,39.29
2023-05-13T18:44:45.857Z,40.06
2023-05-13T18:47:12.439Z,40.49
2023-05-13T18:49:39.157Z,41.10
2023-05-13T18:52:06.237Z,41.45
2023-05-13T18:54:32.855Z,42.06
2023-05-13T18:56:59.478Z,42.33
2023-05-13T18:59:26.074Z,43.05
2023-05-13T19:01:52.794Z,43.34
2023-05-13T19:04:19.739Z,44.29
2023-05-13T19:06:46.426Z,43.76
2023-05-13T19:09:13.008Z,44.61
2023-05-13T19:11:39.597Z,45.20
2023-05-13T19:14:06.641Z,45.47
2023-05-13T19:16:33.317Z,45.48
2023-05-13T19:18:59.909Z,45.82
2023-05-13T19:21:26.505Z,46.82
2023-05-13T19:23:53.082Z,48.45
2023-05-13T19:26:19.747Z,49.70
2023-05-13T19:28:46.764Z,51.10
2023-05-13T19:31:13.352Z,53.08
2023-05-13T19:33:40.310Z,54.24
2023-05-13T19:36:07.227Z,56.28
2023-05-13T19:38:34.908Z,58.86
2023-05-13T19:41:01.743Z,60.95
2023-05-13T19:43:28.285Z,63.46
2023-05-13T19:45:56.429Z,66.21
2023-05-13T19:48:23.107Z,75.02
2023-05-13T19:50:53.291Z,79.65
2023-05-13T19:53:21.633Z,82.30
2023-05-13T19:55:48.271Z,82.61
2023-05-13T19:58:15.632Z,81.13
2023-05-13T20:00:43.965Z,77.98
2023-05-13T20:03:11.066Z,77.00
2023-05-13T20:05:40.067Z,76.30
2023-05-13T20:08:06.920Z,74.09
2023-05-13T20:10:35.237Z,72.82
2023-05-13T20:13:03.954Z,69.85
2023-05-13T20:15:31.726Z,66.98
2023-05-13T20:17:58.478Z,66.53
2023-05-13T20:20:25.303Z,66.30
2023-05-13T20:22:52.094Z,66.57
2023-05-13T20:25:18.676Z,68.04
2023-05-13T20:27:45.362Z,68.88
2023-05-13T20:30:12.639Z,69.72
2023-05-13T20:32:39.320Z,70.31
2023-05-13T20:35:07.504Z,73.62
2023-05-13T20:37:34.341Z,75.08
2023-05-13T20:40:00.960Z,75.81
2023-05-13T20:42:27.537Z,77.65
2023-05-13T20:44:54.123Z,79.86
2023-05-13T20:47:20.953Z,81.06
2023-05-13T20:49:47.515Z,82.52
2023-05-13T20:52:14.173Z,85.67
2023-05-13T20:54:40.853Z,87.21
2023-05-13T20:57:07.497Z,87.30
2023-05-13T20:59:34.508Z,89.25
2023-05-13T21:02:01.100Z,89.85
2023-05-13T21:04:27.908Z,91.07
2023-05-13T21:06:54.456Z,92.64
2023-05-13T21:09:20.966Z,93.61
2023-05-13T21:11:47.534Z,95.39
2023-05-13T21:14:14.258Z,95.76
2023-05-13T21:16:40.814Z,97.17
2023-05-13T21:19:07.600Z,96.56
2023-05-13T21:21:34.203Z,96.83
2023-05-13T21:24:00.731Z,97.55
2023-05-13T21:26:27.339Z,98.82
2023-05-13T21:28:53.891Z,99.14
2023-05-13T21:31:20.546Z,100.00
2023-05-13T21:33:48.771Z,100.00
2023-05-13T21:36:15.355Z,100.00
2023-05-13T21:38:41.878Z,100.00
2023-05-13T21:41:08.481Z,100.00
2023-05-13T21:43:35.115Z,100.00
2023-05-13T21:46:03.168Z,100.00
2023-05-13T21:48:29.748Z,100.00
2023-05-13T21:50:56.415Z,100.00
2023-05-13T21:53:23.190Z,100.00
2023-05-13T21:55:50.250Z,100.00
2023-05-13T21:58:16.930Z,100.00
2023-05-13T22:00:43.568Z,100.00
2023-05-13T22:03:10.230Z,100.00
2023-05-13T22:05:42.198Z,100.00
2023-05-13T22:08:08.826Z,100.00
2023-05-13T22:10:35.378Z,100.00
2023-05-13T22:13:02.055Z,100.00
2023-05-13T22:15:28.701Z,100.00
2023-05-13T22:17:55.425Z,100.00
2023-05-13T22:20:22.463Z,100.00
2023-05-13T22:22:49.469Z,100.00
2023-05-13T22:25:16.221Z,100.00
2023-05-13T22:27:42.703Z,100.00
2023-05-13T22:30:09.489Z,100.00
2023-05-13T22:32:38.233Z,100.00
2023-05-13T22:35:06.413Z,100.00
2023-05-13T22:37:32.924Z,100.00
2023-05-13T22:39:59.465Z,100.00
2023-05-13T22:42:27.294Z,100.00
2023-05-13T22:44:53.794Z,100.00
2023-05-13T22:47:20.414Z,100.00
2023-05-13T22:49:46.919Z,100.00
2023-05-13T22:52:13.456Z,100.00
2023-05-13T22:54:39.927Z,100.00
2023-05-13T22:57:06.521Z,100.00
2023-05-13T22:59:33.041Z,100.00
2023-05-13T23:01:59.802Z,100.00
2023-05-13T23:04:26.581Z,100.00
2023-05-13T23:06:53.156Z,100.00
2023-05-13T23:09:19.786Z,100.00
2023-05-13T23:11:46.365Z,100.00
2023-05-13T23:14:13.044Z,100.00
2023-05-13T23:16:39.638Z,100.00
2023-05-13T23:19:06.256Z,100.00
2023-05-13T23:21:32.872Z,100.00
2023-05-13T23:23:59.519Z,100.00
2023-05-13T23:26:26.063Z,100.00
2023-05-13T23:28:52.694Z,100.00
2023-05-13T23:31:19.277Z,100.00
2023-05-13T23:33:45.910Z,100.00
2023-05-13T23:36:12.551Z,100.00
2023-05-13T23:38:39.642Z,100.00
2023-05-13T23:41:06.228Z,100.00
2023-05-13T23:43:32.754Z,100.00
2023-05-13T23:45:59.419Z,100.00
2023-05-13T23:48:29.068Z,100.00
2023-05-13T23:50:55.641Z,100.00
2023-05-13T23:53:22.184Z,100.00
2023-05-13T23:55:48.927Z,100.00
2023-05-13T23:58:15.730Z,100.00
